West Winfield, New York
Current Conditions -  °F | °C
As of 1:53 PM on Friday 31 Oct 2014 (Local Time) from KRME Reporting Station
Clear Clear  
Wind Chill:   Ceiling: Unl
Heat Index:   Visibility: 10mi
Dew Point:   Wind: 8mph
Humidity: 56%   Direction: 130°SE
Pressure: 29.99"   Gusts: NA
Location:  42.89°N, 75.19°W
Report Text: KRME 311753Z 13007KT 10SM CLR 09/01 A2999 RMK AO2 SLP156 T00890006 10089 21006 56016
Loading
Personal Weather Stations






























Interactive Weather Map
Tropical Storm Tracking
New forecast layout! Learn more

10-Day Weather Forecast

Advertisements
Track Severe Weather on mobile